sensor_id;sensor_type;location;lat;lon;timestamp;P1;durP1;ratioP1;P2;durP2;ratioP2
4274;SDS011;2151;50.988;11.068;2023-08-21T00:00:10;127.07;;;20.90;;
4274;SDS011;2151;50.988;11.068;2023-08-21T00:02:38;131.57;;;22.30;;
4274;SDS011;2151;50.988;11.068;2023-08-21T00:05:04;130.80;;;21.57;;
4274;SDS011;2151;50.988;11.068;2023-08-21T00:07:32;126.57;;;21.43;;
4274;SDS011;2151;50.988;11.068;2023-08-21T00:09:58;139.80;;;23.10;;
4274;SDS011;2151;50.988;11.068;2023-08-21T00:12:25;130.53;;;23.23;;
4274;SDS011;2151;50.988;11.068;2023-08-21T00:14:51;131.53;;;23.13;;
4274;SDS011;2151;50.988;11.068;2023-08-21T00:17:18;127.73;;;22.23;;
4274;SDS011;2151;50.988;11.068;2023-08-21T00:19:44;135.97;;;22.10;;
4274;SDS011;2151;50.988;11.068;2023-08-21T00:22:10;134.27;;;22.73;;
4274;SDS011;2151;50.988;11.068;2023-08-21T00:24:37;134.47;;;24.30;;
4274;SDS011;2151;50.988;11.068;2023-08-21T00:27:03;136.37;;;23.00;;
4274;SDS011;2151;50.988;11.068;2023-08-21T00:29:30;133.13;;;22.30;;
4274;SDS011;2151;50.988;11.068;2023-08-21T00:31:56;125.95;;;20.55;;
4274;SDS011;2151;50.988;11.068;2023-08-21T00:34:22;129.87;;;20.60;;
4274;SDS011;2151;50.988;11.068;2023-08-21T00:36:49;128.27;;;19.93;;
4274;SDS011;2151;50.988;11.068;2023-08-21T00:39:15;129.87;;;20.70;;
4274;SDS011;2151;50.988;11.068;2023-08-21T00:41:42;128.40;;;20.02;;
4274;SDS011;2151;50.988;11.068;2023-08-21T00:44:08;130.40;;;20.33;;
4274;SDS011;2151;50.988;11.068;2023-08-21T00:46:35;126.17;;;20.53;;
4274;SDS011;2151;50.988;11.068;2023-08-21T00:49:01;128.87;;;20.03;;
4274;SDS011;2151;50.988;11.068;2023-08-21T00:51:28;131.83;;;20.47;;
4274;SDS011;2151;50.988;11.068;2023-08-21T00:53:55;131.73;;;20.20;;
4274;SDS011;2151;50.988;11.068;2023-08-21T00:56:22;128.30;;;18.50;;
4274;SDS011;2151;50.988;11.068;2023-08-21T00:58:48;134.23;;;19.90;;
4274;SDS011;2151;50.988;11.068;2023-08-21T01:01:15;126.17;;;18.17;;
4274;SDS011;2151;50.988;11.068;2023-08-21T01:03:42;124.90;;;17.10;;
4274;SDS011;2151;50.988;11.068;2023-08-21T01:06:08;129.87;;;18.97;;
4274;SDS011;2151;50.988;11.068;2023-08-21T01:11:06;129.33;;;18.70;;
4274;SDS011;2151;50.988;11.068;2023-08-21T01:16:02;120.70;;;16.47;;
4274;SDS011;2151;50.988;11.068;2023-08-21T01:18:29;124.40;;;18.17;;
4274;SDS011;2151;50.988;11.068;2023-08-21T01:20:56;125.30;;;16.80;;
4274;SDS011;2151;50.988;11.068;2023-08-21T01:23:31;128.20;;;19.23;;
4274;SDS011;2151;50.988;11.068;2023-08-21T01:25:57;126.95;;;19.05;;
4274;SDS011;2151;50.988;11.068;2023-08-21T01:28:23;125.03;;;17.80;;
4274;SDS011;2151;50.988;11.068;2023-08-21T01:30:51;128.27;;;18.70;;
4274;SDS011;2151;50.988;11.068;2023-08-21T01:33:20;128.87;;;18.37;;
4274;SDS011;2151;50.988;11.068;2023-08-21T01:35:47;126.00;;;19.65;;
4274;SDS011;2151;50.988;11.068;2023-08-21T01:38:14;126.10;;;18.77;;
4274;SDS011;2151;50.988;11.068;2023-08-21T01:40:40;126.20;;;19.30;;
4274;SDS011;2151;50.988;11.068;2023-08-21T01:43:07;127.70;;;20.10;;
4274;SDS011;2151;50.988;11.068;2023-08-21T01:45:33;134.03;;;19.20;;
4274;SDS011;2151;50.988;11.068;2023-08-21T01:48:00;134.90;;;20.67;;
4274;SDS011;2151;50.988;11.068;2023-08-21T01:50:27;138.30;;;21.47;;
4274;SDS011;2151;50.988;11.068;2023-08-21T01:52:53;129.23;;;21.13;;
4274;SDS011;2151;50.988;11.068;2023-08-21T01:55:20;129.00;;;19.77;;
4274;SDS011;2151;50.988;11.068;2023-08-21T01:57:46;128.77;;;21.00;;
4274;SDS011;2151;50.988;11.068;2023-08-21T02:00:13;131.10;;;21.37;;
4274;SDS011;2151;50.988;11.068;2023-08-21T02:02:40;138.53;;;21.67;;
4274;SDS011;2151;50.988;11.068;2023-08-21T02:05:08;136.37;;;22.47;;
4274;SDS011;2151;50.988;11.068;2023-08-21T02:07:34;130.60;;;21.13;;
4274;SDS011;2151;50.988;11.068;2023-08-21T02:10:00;133.07;;;23.50;;
4274;SDS011;2151;50.988;11.068;2023-08-21T02:12:27;132.73;;;23.83;;
4274;SDS011;2151;50.988;11.068;2023-08-21T02:14:53;149.67;;;26.30;;
4274;SDS011;2151;50.988;11.068;2023-08-21T02:17:20;133.40;;;23.63;;
4274;SDS011;2151;50.988;11.068;2023-08-21T02:19:46;127.13;;;20.92;;
4274;SDS011;2151;50.988;11.068;2023-08-21T02:22:12;138.30;;;25.10;;
4274;SDS011;2151;50.988;11.068;2023-08-21T02:24:39;131.40;;;23.10;;
4274;SDS011;2151;50.988;11.068;2023-08-21T02:27:05;137.20;;;22.83;;
4274;SDS011;2151;50.988;11.068;2023-08-21T02:29:32;133.40;;;23.27;;
4274;SDS011;2151;50.988;11.068;2023-08-21T02:31:58;133.40;;;23.00;;
4274;SDS011;2151;50.988;11.068;2023-08-21T02:34:25;131.83;;;23.00;;
4274;SDS011;2151;50.988;11.068;2023-08-21T02:36:52;137.15;;;24.27;;
4274;SDS011;2151;50.988;11.068;2023-08-21T02:39:19;136.15;;;24.02;;
4274;SDS011;2151;50.988;11.068;2023-08-21T02:41:45;140.60;;;24.30;;
4274;SDS011;2151;50.988;11.068;2023-08-21T02:44:12;143.57;;;23.90;;
4274;SDS011;2151;50.988;11.068;2023-08-21T02:46:38;131.83;;;22.43;;
4274;SDS011;2151;50.988;11.068;2023-08-21T02:49:04;134.90;;;22.67;;
4274;SDS011;2151;50.988;11.068;2023-08-21T02:51:31;136.50;;;23.53;;
4274;SDS011;2151;50.988;11.068;2023-08-21T02:53:58;129.47;;;21.33;;
4274;SDS011;2151;50.988;11.068;2023-08-21T02:56:24;138.53;;;24.00;;
4274;SDS011;2151;50.988;11.068;2023-08-21T02:58:51;132.80;;;24.27;;
4274;SDS011;2151;50.988;11.068;2023-08-21T03:01:17;134.43;;;23.17;;
4274;SDS011;2151;50.988;11.068;2023-08-21T03:03:44;133.43;;;23.93;;
4274;SDS011;2151;50.988;11.068;2023-08-21T03:06:11;139.63;;;26.80;;
4274;SDS011;2151;50.988;11.068;2023-08-21T03:08:38;141.40;;;24.90;;
4274;SDS011;2151;50.988;11.068;2023-08-21T03:11:04;139.40;;;24.67;;
4274;SDS011;2151;50.988;11.068;2023-08-21T03:13:32;140.10;;;25.93;;
4274;SDS011;2151;50.988;11.068;2023-08-21T03:15:58;137.57;;;25.80;;
4274;SDS011;2151;50.988;11.068;2023-08-21T03:18:24;137.00;;;24.17;;
4274;SDS011;2151;50.988;11.068;2023-08-21T03:20:51;135.27;;;25.20;;
4274;SDS011;2151;50.988;11.068;2023-08-21T03:23:18;141.77;;;26.30;;
4274;SDS011;2151;50.988;11.068;2023-08-21T03:25:44;137.63;;;25.23;;
4274;SDS011;2151;50.988;11.068;2023-08-21T03:28:10;135.27;;;25.03;;
4274;SDS011;2151;50.988;11.068;2023-08-21T03:30:38;135.50;;;25.53;;
4274;SDS011;2151;50.988;11.068;2023-08-21T03:33:05;135.93;;;24.30;;
4274;SDS011;2151;50.988;11.068;2023-08-21T03:35:32;135.20;;;25.10;;
4274;SDS011;2151;50.988;11.068;2023-08-21T03:37:58;141.57;;;25.90;;
4274;SDS011;2151;50.988;11.068;2023-08-21T03:40:25;135.97;;;25.37;;
4274;SDS011;2151;50.988;11.068;2023-08-21T03:42:51;141.60;;;26.00;;
4274;SDS011;2151;50.988;11.068;2023-08-21T03:45:17;140.57;;;26.50;;
4274;SDS011;2151;50.988;11.068;2023-08-21T03:47:44;145.30;;;26.30;;
4274;SDS011;2151;50.988;11.068;2023-08-21T03:50:10;151.70;;;25.77;;
4274;SDS011;2151;50.988;11.068;2023-08-21T03:52:37;138.67;;;25.70;;
4274;SDS011;2151;50.988;11.068;2023-08-21T03:55:04;134.47;;;23.80;;
4274;SDS011;2151;50.988;11.068;2023-08-21T03:57:30;134.50;;;24.53;;
4274;SDS011;2151;50.988;11.068;2023-08-21T03:59:57;133.93;;;23.90;;
4274;SDS011;2151;50.988;11.068;2023-08-21T04:02:23;138.53;;;24.63;;
4274;SDS011;2151;50.988;11.068;2023-08-21T04:04:52;138.97;;;26.20;;
4274;SDS011;2151;50.988;11.068;2023-08-21T04:07:18;133.77;;;25.20;;
4274;SDS011;2151;50.988;11.068;2023-08-21T04:09:45;135.20;;;23.47;;
4274;SDS011;2151;50.988;11.068;2023-08-21T04:12:11;137.97;;;25.70;;
4274;SDS011;2151;50.988;11.068;2023-08-21T04:14:39;140.67;;;23.60;;
4274;SDS011;2151;50.988;11.068;2023-08-21T04:17:05;137.20;;;25.70;;
4274;SDS011;2151;50.988;11.068;2023-08-21T04:19:32;132.83;;;23.53;;
4274;SDS011;2151;50.988;11.068;2023-08-21T04:22:00;136.03;;;25.03;;
4274;SDS011;2151;50.988;11.068;2023-08-21T04:24:26;136.07;;;24.77;;
4274;SDS011;2151;50.988;11.068;2023-08-21T04:26:53;135.10;;;25.20;;
4274;SDS011;2151;50.988;11.068;2023-08-21T04:29:19;136.97;;;25.40;;
4274;SDS011;2151;50.988;11.068;2023-08-21T04:31:45;142.13;;;24.83;;
4274;SDS011;2151;50.988;11.068;2023-08-21T04:34:12;139.37;;;26.73;;
4274;SDS011;2151;50.988;11.068;2023-08-21T04:36:38;136.00;;;25.00;;
4274;SDS011;2151;50.988;11.068;2023-08-21T04:39:05;133.30;;;24.83;;
4274;SDS011;2151;50.988;11.068;2023-08-21T04:41:31;142.77;;;27.37;;
4274;SDS011;2151;50.988;11.068;2023-08-21T04:43:58;137.27;;;25.67;;
4274;SDS011;2151;50.988;11.068;2023-08-21T04:46:26;140.67;;;28.07;;
4274;SDS011;2151;50.988;11.068;2023-08-21T04:48:52;140.50;;;27.70;;
4274;SDS011;2151;50.988;11.068;2023-08-21T04:51:18;142.10;;;26.23;;
4274;SDS011;2151;50.988;11.068;2023-08-21T04:53:46;140.67;;;27.50;;
4274;SDS011;2151;50.988;11.068;2023-08-21T04:56:13;139.20;;;26.47;;
4274;SDS011;2151;50.988;11.068;2023-08-21T04:58:39;140.60;;;27.93;;
4274;SDS011;2151;50.988;11.068;2023-08-21T05:01:05;138.17;;;27.83;;
4274;SDS011;2151;50.988;11.068;2023-08-21T05:03:32;147.13;;;28.53;;
4274;SDS011;2151;50.988;11.068;2023-08-21T05:05:59;138.73;;;27.50;;
4274;SDS011;2151;50.988;11.068;2023-08-21T05:08:25;139.47;;;27.90;;
4274;SDS011;2151;50.988;11.068;2023-08-21T05:10:55;148.20;;;27.92;;
4274;SDS011;2151;50.988;11.068;2023-08-21T05:13:22;141.70;;;29.97;;
4274;SDS011;2151;50.988;11.068;2023-08-21T05:15:55;146.33;;;29.23;;
4274;SDS011;2151;50.988;11.068;2023-08-21T05:18:23;137.27;;;26.80;;
4274;SDS011;2151;50.988;11.068;2023-08-21T05:20:51;138.50;;;27.90;;
4274;SDS011;2151;50.988;11.068;2023-08-21T05:23:17;140.67;;;27.73;;
4274;SDS011;2151;50.988;11.068;2023-08-21T05:25:44;139.80;;;27.60;;
4274;SDS011;2151;50.988;11.068;2023-08-21T05:28:11;138.00;;;26.90;;
4274;SDS011;2151;50.988;11.068;2023-08-21T05:30:37;139.70;;;28.20;;
4274;SDS011;2151;50.988;11.068;2023-08-21T05:33:04;141.67;;;28.33;;
4274;SDS011;2151;50.988;11.068;2023-08-21T05:35:34;139.63;;;27.20;;
4274;SDS011;2151;50.988;11.068;2023-08-21T05:38:02;140.83;;;25.50;;
4274;SDS011;2151;50.988;11.068;2023-08-21T05:40:28;137.70;;;26.60;;
4274;SDS011;2151;50.988;11.068;2023-08-21T05:42:55;140.35;;;27.65;;
4274;SDS011;2151;50.988;11.068;2023-08-21T05:45:21;139.97;;;26.00;;
4274;SDS011;2151;50.988;11.068;2023-08-21T05:47:48;147.20;;;25.93;;
4274;SDS011;2151;50.988;11.068;2023-08-21T05:50:14;140.20;;;25.30;;
4274;SDS011;2151;50.988;11.068;2023-08-21T05:52:41;137.17;;;26.97;;
4274;SDS011;2151;50.988;11.068;2023-08-21T05:55:09;139.30;;;26.60;;
4274;SDS011;2151;50.988;11.068;2023-08-21T05:57:35;136.30;;;24.37;;
4274;SDS011;2151;50.988;11.068;2023-08-21T06:00:01;135.20;;;24.60;;
4274;SDS011;2151;50.988;11.068;2023-08-21T06:02:28;134.90;;;22.73;;
4274;SDS011;2151;50.988;11.068;2023-08-21T06:04:54;133.60;;;22.33;;
4274;SDS011;2151;50.988;11.068;2023-08-21T06:07:21;135.47;;;23.50;;
4274;SDS011;2151;50.988;11.068;2023-08-21T06:09:47;129.70;;;20.47;;
4274;SDS011;2151;50.988;11.068;2023-08-21T06:12:14;131.53;;;21.57;;
4274;SDS011;2151;50.988;11.068;2023-08-21T06:14:40;130.20;;;20.50;;
4274;SDS011;2151;50.988;11.068;2023-08-21T06:17:06;127.47;;;19.47;;
4274;SDS011;2151;50.988;11.068;2023-08-21T06:19:33;131.53;;;21.30;;
4274;SDS011;2151;50.988;11.068;2023-08-21T06:21:59;129.20;;;19.37;;
4274;SDS011;2151;50.988;11.068;2023-08-21T06:24:26;129.00;;;19.27;;
4274;SDS011;2151;50.988;11.068;2023-08-21T06:26:52;124.00;;;18.97;;
4274;SDS011;2151;50.988;11.068;2023-08-21T06:29:19;128.97;;;18.87;;
4274;SDS011;2151;50.988;11.068;2023-08-21T06:31:49;126.97;;;19.73;;
4274;SDS011;2151;50.988;11.068;2023-08-21T06:34:16;132.57;;;19.87;;
4274;SDS011;2151;50.988;11.068;2023-08-21T06:36:42;127.57;;;18.83;;
4274;SDS011;2151;50.988;11.068;2023-08-21T06:39:10;133.03;;;19.43;;
4274;SDS011;2151;50.988;11.068;2023-08-21T06:41:36;127.17;;;16.47;;
4274;SDS011;2151;50.988;11.068;2023-08-21T06:44:03;126.00;;;16.40;;
4274;SDS011;2151;50.988;11.068;2023-08-21T06:46:29;131.77;;;15.60;;
4274;SDS011;2151;50.988;11.068;2023-08-21T06:48:56;127.47;;;16.13;;
4274;SDS011;2151;50.988;11.068;2023-08-21T06:51:22;123.32;;;14.77;;
4274;SDS011;2151;50.988;11.068;2023-08-21T06:53:48;119.97;;;15.33;;
4274;SDS011;2151;50.988;11.068;2023-08-21T06:56:15;124.43;;;15.55;;
4274;SDS011;2151;50.988;11.068;2023-08-21T06:58:41;121.33;;;15.37;;
4274;SDS011;2151;50.988;11.068;2023-08-21T07:01:08;125.30;;;14.80;;
4274;SDS011;2151;50.988;11.068;2023-08-21T07:03:34;118.87;;;14.43;;
4274;SDS011;2151;50.988;11.068;2023-08-21T07:06:01;115.93;;;12.20;;
4274;SDS011;2151;50.988;11.068;2023-08-21T07:08:28;129.77;;;13.57;;
4274;SDS011;2151;50.988;11.068;2023-08-21T07:10:55;123.37;;;12.60;;
4274;SDS011;2151;50.988;11.068;2023-08-21T07:13:21;117.07;;;12.70;;
4274;SDS011;2151;50.988;11.068;2023-08-21T07:15:47;118.93;;;11.30;;
4274;SDS011;2151;50.988;11.068;2023-08-21T07:18:14;129.33;;;12.07;;
4274;SDS011;2151;50.988;11.068;2023-08-21T07:20:40;121.27;;;10.60;;
4274;SDS011;2151;50.988;11.068;2023-08-21T07:23:07;122.20;;;12.30;;
4274;SDS011;2151;50.988;11.068;2023-08-21T07:25:33;114.60;;;9.97;;
4274;SDS011;2151;50.988;11.068;2023-08-21T07:28:00;113.40;;;10.27;;
4274;SDS011;2151;50.988;11.068;2023-08-21T07:30:27;110.97;;;9.30;;
4274;SDS011;2151;50.988;11.068;2023-08-21T07:32:53;112.70;;;9.00;;
4274;SDS011;2151;50.988;11.068;2023-08-21T07:35:20;117.30;;;9.70;;
4274;SDS011;2151;50.988;11.068;2023-08-21T07:37:47;114.00;;;9.48;;
4274;SDS011;2151;50.988;11.068;2023-08-21T07:40:13;118.00;;;9.57;;
4274;SDS011;2151;50.988;11.068;2023-08-21T07:42:40;114.10;;;9.93;;
4274;SDS011;2151;50.988;11.068;2023-08-21T07:45:06;111.03;;;9.67;;
4274;SDS011;2151;50.988;11.068;2023-08-21T07:47:33;112.30;;;9.13;;
4274;SDS011;2151;50.988;11.068;2023-08-21T07:50:02;112.67;;;8.77;;
4274;SDS011;2151;50.988;11.068;2023-08-21T07:52:29;115.80;;;9.83;;
4274;SDS011;2151;50.988;11.068;2023-08-21T07:54:55;108.77;;;8.33;;
4274;SDS011;2151;50.988;11.068;2023-08-21T07:57:21;112.97;;;8.63;;
4274;SDS011;2151;50.988;11.068;2023-08-21T07:59:48;113.60;;;8.80;;
4274;SDS011;2151;50.988;11.068;2023-08-21T08:02:14;108.87;;;8.43;;
4274;SDS011;2151;50.988;11.068;2023-08-21T08:04:41;110.30;;;9.20;;
4274;SDS011;2151;50.988;11.068;2023-08-21T08:07:09;108.30;;;8.27;;
4274;SDS011;2151;50.988;11.068;2023-08-21T08:09:35;113.38;;;10.10;;
4274;SDS011;2151;50.988;11.068;2023-08-21T08:12:02;107.60;;;9.07;;
4274;SDS011;2151;50.988;11.068;2023-08-21T08:14:29;109.00;;;8.47;;
4274;SDS011;2151;50.988;11.068;2023-08-21T08:16:55;107.90;;;8.20;;
4274;SDS011;2151;50.988;11.068;2023-08-21T08:19:22;108.27;;;8.50;;
4274;SDS011;2151;50.988;11.068;2023-08-21T08:21:48;107.73;;;8.03;;
4274;SDS011;2151;50.988;11.068;2023-08-21T08:24:14;110.47;;;8.63;;
4274;SDS011;2151;50.988;11.068;2023-08-21T08:26:41;107.33;;;7.93;;
4274;SDS011;2151;50.988;11.068;2023-08-21T08:29:09;107.73;;;8.60;;
4274;SDS011;2151;50.988;11.068;2023-08-21T08:31:35;107.50;;;8.37;;
4274;SDS011;2151;50.988;11.068;2023-08-21T08:34:02;110.87;;;9.00;;
4274;SDS011;2151;50.988;11.068;2023-08-21T08:36:28;108.13;;;8.77;;
4274;SDS011;2151;50.988;11.068;2023-08-21T08:38:54;105.40;;;8.60;;
4274;SDS011;2151;50.988;11.068;2023-08-21T08:41:24;107.03;;;9.37;;
4274;SDS011;2151;50.988;11.068;2023-08-21T08:43:51;106.17;;;8.03;;
4274;SDS011;2151;50.988;11.068;2023-08-21T08:46:19;114.13;;;9.00;;
4274;SDS011;2151;50.988;11.068;2023-08-21T08:48:46;108.50;;;8.30;;
4274;SDS011;2151;50.988;11.068;2023-08-21T08:51:12;104.83;;;8.57;;
4274;SDS011;2151;50.988;11.068;2023-08-21T08:53:39;107.47;;;9.30;;
4274;SDS011;2151;50.988;11.068;2023-08-21T08:56:05;107.43;;;9.43;;
4274;SDS011;2151;50.988;11.068;2023-08-21T08:58:32;111.10;;;11.00;;
4274;SDS011;2151;50.988;11.068;2023-08-21T09:00:59;106.10;;;9.93;;
4274;SDS011;2151;50.988;11.068;2023-08-21T09:03:25;107.87;;;9.90;;
4274;SDS011;2151;50.988;11.068;2023-08-21T09:05:52;105.63;;;10.00;;
4274;SDS011;2151;50.988;11.068;2023-08-21T09:08:19;108.30;;;11.00;;
4274;SDS011;2151;50.988;11.068;2023-08-21T09:10:45;106.90;;;9.97;;
4274;SDS011;2151;50.988;11.068;2023-08-21T09:13:16;106.87;;;9.70;;
4274;SDS011;2151;50.988;11.068;2023-08-21T09:15:47;106.00;;;9.60;;
4274;SDS011;2151;50.988;11.068;2023-08-21T09:18:14;104.77;;;8.60;;
4274;SDS011;2151;50.988;11.068;2023-08-21T09:20:41;106.53;;;8.70;;
4274;SDS011;2151;50.988;11.068;2023-08-21T09:23:08;106.27;;;8.40;;
4274;SDS011;2151;50.988;11.068;2023-08-21T09:25:39;106.97;;;9.50;;
4274;SDS011;2151;50.988;11.068;2023-08-21T09:28:09;105.77;;;8.07;;
4274;SDS011;2151;50.988;11.068;2023-08-21T09:33:11;104.20;;;8.57;;
4274;SDS011;2151;50.988;11.068;2023-08-21T09:35:38;104.37;;;8.63;;
4274;SDS011;2151;50.988;11.068;2023-08-21T09:38:05;106.73;;;9.10;;
4274;SDS011;2151;50.988;11.068;2023-08-21T09:40:33;109.80;;;8.30;;
4274;SDS011;2151;50.988;11.068;2023-08-21T09:43:00;104.57;;;8.20;;
4274;SDS011;2151;50.988;11.068;2023-08-21T09:45:29;105.27;;;8.63;;
4274;SDS011;2151;50.988;11.068;2023-08-21T09:47:56;107.13;;;9.83;;
4274;SDS011;2151;50.988;11.068;2023-08-21T09:50:24;106.10;;;9.60;;
4274;SDS011;2151;50.988;11.068;2023-08-21T09:52:51;102.97;;;8.77;;
4274;SDS011;2151;50.988;11.068;2023-08-21T09:55:17;104.70;;;8.00;;
4274;SDS011;2151;50.988;11.068;2023-08-21T09:57:44;102.45;;;7.97;;
4274;SDS011;2151;50.988;11.068;2023-08-21T10:00:10;102.30;;;7.80;;
4274;SDS011;2151;50.988;11.068;2023-08-21T10:02:50;103.90;;;8.63;;
4274;SDS011;2151;50.988;11.068;2023-08-21T10:05:16;103.70;;;8.90;;
4274;SDS011;2151;50.988;11.068;2023-08-21T10:07:43;104.53;;;8.70;;
4274;SDS011;2151;50.988;11.068;2023-08-21T10:10:11;103.50;;;7.97;;
4274;SDS011;2151;50.988;11.068;2023-08-21T10:12:38;107.80;;;8.20;;
4274;SDS011;2151;50.988;11.068;2023-08-21T10:15:06;102.20;;;8.20;;
4274;SDS011;2151;50.988;11.068;2023-08-21T10:17:33;105.33;;;8.67;;
4274;SDS011;2151;50.988;11.068;2023-08-21T10:20:03;101.17;;;8.63;;
4274;SDS011;2151;50.988;11.068;2023-08-21T10:22:43;102.20;;;8.47;;
4274;SDS011;2151;50.988;11.068;2023-08-21T10:27:49;103.00;;;9.23;;
4274;SDS011;2151;50.988;11.068;2023-08-21T10:30:19;100.00;;;8.00;;
4274;SDS011;2151;50.988;11.068;2023-08-21T10:32:50;101.20;;;8.67;;
4274;SDS011;2151;50.988;11.068;2023-08-21T10:35:20;101.70;;;8.27;;
4274;SDS011;2151;50.988;11.068;2023-08-21T10:40:37;98.50;;;7.27;;
4274;SDS011;2151;50.988;11.068;2023-08-21T10:43:04;101.85;;;7.72;;
4274;SDS011;2151;50.988;11.068;2023-08-21T10:45:55;102.47;;;8.30;;
4274;SDS011;2151;50.988;11.068;2023-08-21T10:48:22;99.78;;;7.35;;
4274;SDS011;2151;50.988;11.068;2023-08-21T10:50:49;102.70;;;8.33;;
4274;SDS011;2151;50.988;11.068;2023-08-21T10:53:15;98.67;;;8.10;;
4274;SDS011;2151;50.988;11.068;2023-08-21T10:55:42;99.80;;;8.10;;
4274;SDS011;2151;50.988;11.068;2023-08-21T10:58:08;100.07;;;7.97;;
4274;SDS011;2151;50.988;11.068;2023-08-21T11:00:37;99.95;;;7.30;;
4274;SDS011;2151;50.988;11.068;2023-08-21T11:03:04;99.37;;;7.47;;
4274;SDS011;2151;50.988;11.068;2023-08-21T11:05:30;101.70;;;7.78;;
4274;SDS011;2151;50.988;11.068;2023-08-21T11:07:56;100.43;;;7.30;;
4274;SDS011;2151;50.988;11.068;2023-08-21T11:10:23;108.20;;;7.63;;
4274;SDS011;2151;50.988;11.068;2023-08-21T11:12:51;108.67;;;7.30;;
4274;SDS011;2151;50.988;11.068;2023-08-21T11:15:18;99.80;;;7.13;;
4274;SDS011;2151;50.988;11.068;2023-08-21T11:17:55;98.10;;;6.87;;
4274;SDS011;2151;50.988;11.068;2023-08-21T11:20:27;100.47;;;7.80;;
4274;SDS011;2151;50.988;11.068;2023-08-21T11:22:57;97.73;;;7.20;;
4274;SDS011;2151;50.988;11.068;2023-08-21T11:25:24;99.03;;;6.87;;
4274;SDS011;2151;50.988;11.068;2023-08-21T11:27:50;98.68;;;6.60;;
4274;SDS011;2151;50.988;11.068;2023-08-21T11:30:17;100.00;;;7.03;;
4274;SDS011;2151;50.988;11.068;2023-08-21T11:32:46;90.85;;;6.65;;
4274;SDS011;2151;50.988;11.068;2023-08-21T11:35:12;99.28;;;7.05;;
4274;SDS011;2151;50.988;11.068;2023-08-21T11:37:43;100.68;;;6.35;;
4274;SDS011;2151;50.988;11.068;2023-08-21T11:40:11;97.50;;;6.93;;
4274;SDS011;2151;50.988;11.068;2023-08-21T11:42:38;97.97;;;7.20;;
4274;SDS011;2151;50.988;11.068;2023-08-21T11:45:04;96.78;;;6.70;;
4274;SDS011;2151;50.988;11.068;2023-08-21T11:47:33;97.40;;;6.10;;
4274;SDS011;2151;50.988;11.068;2023-08-21T11:50:03;99.57;;;6.53;;
4274;SDS011;2151;50.988;11.068;2023-08-21T11:52:31;100.13;;;6.07;;
4274;SDS011;2151;50.988;11.068;2023-08-21T11:55:10;97.90;;;6.50;;
4274;SDS011;2151;50.988;11.068;2023-08-21T11:57:50;98.37;;;6.47;;
4274;SDS011;2151;50.988;11.068;2023-08-21T12:00:17;97.20;;;6.03;;
4274;SDS011;2151;50.988;11.068;2023-08-21T12:02:58;98.97;;;5.83;;
4274;SDS011;2151;50.988;11.068;2023-08-21T12:05:26;100.20;;;6.33;;
4274;SDS011;2151;50.988;11.068;2023-08-21T12:07:54;97.68;;;7.10;;
4274;SDS011;2151;50.988;11.068;2023-08-21T12:10:27;98.43;;;6.70;;
4274;SDS011;2151;50.988;11.068;2023-08-21T12:12:54;102.97;;;6.30;;
4274;SDS011;2151;50.988;11.068;2023-08-21T12:15:21;101.67;;;6.10;;
4274;SDS011;2151;50.988;11.068;2023-08-21T12:17:47;102.47;;;5.97;;
4274;SDS011;2151;50.988;11.068;2023-08-21T12:20:14;97.20;;;5.67;;
4274;SDS011;2151;50.988;11.068;2023-08-21T12:22:40;98.20;;;6.37;;
4274;SDS011;2151;50.988;11.068;2023-08-21T12:25:10;100.37;;;5.90;;
4274;SDS011;2151;50.988;11.068;2023-08-21T12:27:36;99.23;;;6.13;;
4274;SDS011;2151;50.988;11.068;2023-08-21T12:30:04;101.25;;;5.93;;
4274;SDS011;2151;50.988;11.068;2023-08-21T12:32:30;106.35;;;5.60;;
4274;SDS011;2151;50.988;11.068;2023-08-21T12:34:57;100.73;;;6.50;;
4274;SDS011;2151;50.988;11.068;2023-08-21T12:37:24;100.70;;;6.27;;
4274;SDS011;2151;50.988;11.068;2023-08-21T12:39:51;98.87;;;7.00;;
4274;SDS011;2151;50.988;11.068;2023-08-21T12:42:18;98.80;;;6.37;;
4274;SDS011;2151;50.988;11.068;2023-08-21T12:44:44;98.20;;;6.33;;
4274;SDS011;2151;50.988;11.068;2023-08-21T12:47:11;101.40;;;5.80;;
4274;SDS011;2151;50.988;11.068;2023-08-21T12:49:37;99.53;;;6.20;;
4274;SDS011;2151;50.988;11.068;2023-08-21T12:52:03;99.00;;;5.63;;
4274;SDS011;2151;50.988;11.068;2023-08-21T12:54:34;100.17;;;5.97;;
4274;SDS011;2151;50.988;11.068;2023-08-21T12:57:01;101.80;;;5.80;;
4274;SDS011;2151;50.988;11.068;2023-08-21T12:59:27;102.50;;;5.90;;
4274;SDS011;2151;50.988;11.068;2023-08-21T13:01:54;98.93;;;6.17;;
4274;SDS011;2151;50.988;11.068;2023-08-21T13:04:20;103.60;;;5.93;;
4274;SDS011;2151;50.988;11.068;2023-08-21T13:06:46;107.30;;;6.23;;
4274;SDS011;2151;50.988;11.068;2023-08-21T13:09:13;101.10;;;5.60;;
4274;SDS011;2151;50.988;11.068;2023-08-21T13:11:39;97.80;;;5.40;;
4274;SDS011;2151;50.988;11.068;2023-08-21T13:14:06;98.10;;;5.60;;
4274;SDS011;2151;50.988;11.068;2023-08-21T13:16:32;101.03;;;5.05;;
4274;SDS011;2151;50.988;11.068;2023-08-21T13:18:59;103.80;;;6.00;;
4274;SDS011;2151;50.988;11.068;2023-08-21T13:21:25;97.50;;;5.20;;
4274;SDS011;2151;50.988;11.068;2023-08-21T13:23:52;98.80;;;5.40;;
4274;SDS011;2151;50.988;11.068;2023-08-21T13:26:18;99.00;;;4.87;;
4274;SDS011;2151;50.988;11.068;2023-08-21T13:28:45;97.07;;;5.33;;
4274;SDS011;2151;50.988;11.068;2023-08-21T13:31:11;99.63;;;5.43;;
4274;SDS011;2151;50.988;11.068;2023-08-21T13:33:47;100.47;;;4.93;;
4274;SDS011;2151;50.988;11.068;2023-08-21T13:36:17;96.47;;;4.50;;
4274;SDS011;2151;50.988;11.068;2023-08-21T13:38:45;98.53;;;5.27;;
4274;SDS011;2151;50.988;11.068;2023-08-21T13:41:11;95.73;;;5.00;;
4274;SDS011;2151;50.988;11.068;2023-08-21T13:43:37;98.83;;;4.93;;
4274;SDS011;2151;50.988;11.068;2023-08-21T13:46:06;95.57;;;4.68;;
4274;SDS011;2151;50.988;11.068;2023-08-21T13:48:32;96.80;;;4.97;;
4274;SDS011;2151;50.988;11.068;2023-08-21T13:50:59;100.60;;;5.00;;
4274;SDS011;2151;50.988;11.068;2023-08-21T13:53:25;97.50;;;5.03;;
4274;SDS011;2151;50.988;11.068;2023-08-21T13:55:52;102.30;;;5.33;;
4274;SDS011;2151;50.988;11.068;2023-08-21T13:58:19;98.97;;;4.67;;
4274;SDS011;2151;50.988;11.068;2023-08-21T14:00:49;102.57;;;5.33;;
4274;SDS011;2151;50.988;11.068;2023-08-21T14:03:16;102.17;;;5.20;;
4274;SDS011;2151;50.988;11.068;2023-08-21T14:05:42;97.90;;;5.10;;
4274;SDS011;2151;50.988;11.068;2023-08-21T14:08:09;111.30;;;6.07;;
4274;SDS011;2151;50.988;11.068;2023-08-21T14:10:35;105.80;;;5.63;;
4274;SDS011;2151;50.988;11.068;2023-08-21T14:13:02;99.30;;;5.70;;
4274;SDS011;2151;50.988;11.068;2023-08-21T14:15:30;98.35;;;5.22;;
4274;SDS011;2151;50.988;11.068;2023-08-21T14:17:56;105.17;;;6.00;;
4274;SDS011;2151;50.988;11.068;2023-08-21T14:20:23;98.33;;;5.37;;
4274;SDS011;2151;50.988;11.068;2023-08-21T14:22:49;101.13;;;5.13;;
4274;SDS011;2151;50.988;11.068;2023-08-21T14:25:16;98.63;;;5.47;;
4274;SDS011;2151;50.988;11.068;2023-08-21T14:27:43;99.00;;;5.23;;
4274;SDS011;2151;50.988;11.068;2023-08-21T14:30:09;99.27;;;5.63;;
4274;SDS011;2151;50.988;11.068;2023-08-21T14:32:36;103.67;;;5.33;;
4274;SDS011;2151;50.988;11.068;2023-08-21T14:35:04;105.33;;;4.90;;
4274;SDS011;2151;50.988;11.068;2023-08-21T14:37:31;100.90;;;5.37;;
4274;SDS011;2151;50.988;11.068;2023-08-21T14:39:58;101.20;;;4.60;;
4274;SDS011;2151;50.988;11.068;2023-08-21T14:42:24;104.77;;;6.27;;